Airfield :
LOGIN :

Register | Disclaimer

   EN    FR    IT 

 










Legend :    VFR   Marginal VFR   IFR   Intensive IFR   Very Intensive IFR
Visi :
Ceiling :
>= 8 km
>= 3000ft
5 to 8 km
1000 to 3000 ft
1500m to 5 km
500 to 1000 ft
800 to 1500m
200 to 500 ft
< 800m
< 200 ft
Symbols :   Thunderstorms  Fog  Heavy snow  Heavy precipitations  Wind > 20 kt
SIGMETs :     Misc.  Thunderstorms  Icing  Turbulence  Mountain Waves  Volcanic Ashes






- Airport Elevation : 157 ft
- IATA code : LIL


LFQQ - Lille Lesquin

CURRENT METAR :
  • 010730Z AUTO 25010KT 9999 BKN012 BKN038 BKN074 18/15 Q1010 TEMPO 3000 SHRA SCT013 BKN025CB

EXPIRED METARs :
  • 010700Z AUTO 24009KT 9999 BKN009 BKN013 BKN037 16/15 Q1010 BECMG SCT020
  • 010630Z AUTO 23010KT 9999 FEW008 BKN031 OVC110 16/14 Q1010 TEMPO BKN010
  • 010600Z AUTO 23008KT 9999 FEW009 BKN110 15/14 Q1010 TEMPO BKN010
  • 010530Z AUTO 19003KT 9999 FEW009 SCT068 BKN100 14/13 Q1010 TEMPO BKN012 BECMG 25010KT
  • 010500Z AUTO 19003KT 9999 ///TCU 14/13 Q1010 TEMPO BKN012 BECMG 25010KT

TAF TAF LFQQ
Valid from the 01 at 06:00 until the 02 at 12:00 UTC


010500Z 0106/0212 25010KT 9999 SCT020
TEMPO 0106/0108 BKN010
TEMPO 0109/0120 3000 SHRA SCT013 BKN025CB
BECMG 0112/0115 34008KT
TEMPO 0122/0208 3000 RA BKN004 OVC015
ATIS : +33 3 20 16 19 54



MET'MAP, your aeronautical weather chart ! - Copyright ORBIFLY December 2007 - Disclaimer

ORBIFLY MET'MAP TEAM :

Programming & Development : Alexandra Zaïnal
Concept & original design : Baudouin d'Aumeries
Assistance for programming : Marc-Olivier Méhu
Technical & hardware support : Manuel Goepfert

Contact : metmap@orbifly.com




SOURCES & CREDITS :

   NOAA